Time;durP1;ratioP1;P1;durP2;ratioP2;P2;SDS_P1;SDS_P2;PMS_P1;PMS_P2;Temp;Humidity;BMP_temperature;BMP_pressure;BME280_temperature;BME280_humidity;BME280_pressure;Samples;Min_cycle;Max_cycle;Signal;HPM_P1;HPM_P2
2022/01/25 05:57:29;;;;;;;77.22;36.30;;;3.50;99.90;;;;;;4849797;29;20149;-93
2022/01/25 05:59:55;;;;;;;79.82;37.47;;;3.70;99.90;;;;;;4807555;29;20070;-93
2022/01/25 06:02:23;;;;;;;78.55;37.72;;;3.70;99.90;;;;;;4795040;29;20058;-94
2022/01/25 06:04:50;;;;;;;76.75;37.25;;;3.50;99.90;;;;;;4795220;29;20054;-93
2022/01/25 06:07:16;;;;;;;83.15;38.13;;;3.40;99.90;;;;;;4794767;29;20065;-94
2022/01/25 06:09:44;;;;;;;79.53;37.55;;;3.70;99.90;;;;;;4810282;29;20050;-93
2022/01/25 06:13:03;;;;;;;75.75;37.15;;;3.50;99.90;;;;;;4825432;29;20655;-93
2022/01/25 06:15:29;;;;;;;81.18;37.97;;;3.50;99.90;;;;;;4794749;29;20137;-93
2022/01/25 06:17:55;;;;;;;80.82;38.65;;;3.50;99.90;;;;;;4809732;29;20096;-93
2022/01/25 06:20:32;;;;;;;78.38;37.80;;;3.50;99.90;;;;;;4810084;29;20054;-92
2022/01/25 06:22:59;;;;;;;79.90;38.53;;;3.50;99.90;;;;;;4809845;29;20137;-93
2022/01/25 06:25:25;;;;;;;81.65;37.72;;;3.60;99.90;;;;;;4809989;29;20531;-93
2022/01/25 06:27:55;;;;;;;80.47;38.35;;;3.50;99.90;;;;;;4810383;29;20098;-93
2022/01/25 06:30:21;;;;;;;79.45;38.13;;;3.50;99.90;;;;;;4809551;29;20054;-93
2022/01/25 06:32:47;;;;;;;81.03;39.00;;;3.50;99.90;;;;;;4810520;29;20556;-94
2022/01/25 06:35:17;;;;;;;77.68;38.33;;;3.70;99.90;;;;;;4794792;29;20066;-94
2022/01/25 06:37:43;;;;;;;80.25;38.08;;;3.50;99.90;;;;;;4809999;29;20397;-93
2022/01/25 06:40:10;;;;;;;79.18;38.75;;;3.80;99.90;;;;;;4794618;29;20477;-93
2022/01/25 06:42:37;;;;;;;80.57;39.28;;;3.50;99.90;;;;;;4809801;29;20132;-93
2022/01/25 06:45:09;;;;;;;84.07;38.83;;;3.50;99.90;;;;;;4824826;29;20058;-93
2022/01/25 06:47:35;;;;;;;80.45;37.25;;;3.50;99.90;;;;;;4813409;29;20066;-93
2022/01/25 06:50:23;;;;;;;75.38;36.63;;;3.50;99.90;;;;;;4812641;29;20118;-93
2022/01/25 06:52:49;;;;;;;82.28;37.58;;;3.50;99.90;;;;;;4798383;29;20508;-93
2022/01/25 06:55:17;;;;;;;76.70;36.75;;;3.50;99.90;;;;;;4812582;29;20054;-93
2022/01/25 06:57:51;;;;;;;74.43;37.45;;;3.60;99.90;;;;;;4798203;29;20485;-93
2022/01/25 07:00:19;;;;;;;78.00;37.00;;;3.50;99.90;;;;;;4813339;29;20084;-94
2022/01/25 07:02:45;;;;;;;80.85;39.10;;;3.50;99.90;;;;;;4798224;29;20058;-92
2022/01/25 07:05:14;;;;;;;74.80;36.28;;;3.50;99.90;;;;;;4798166;29;20050;-94
2022/01/25 07:07:41;;;;;;;81.13;36.78;;;3.60;99.90;;;;;;4813271;29;20058;-93
2022/01/25 07:10:07;;;;;;;82.85;38.20;;;3.40;99.90;;;;;;4813066;29;20058;-93
2022/01/25 07:12:36;;;;;;;83.47;38.58;;;3.40;99.90;;;;;;4797842;29;20047;-95
2022/01/25 07:15:02;;;;;;;84.13;38.10;;;3.40;99.90;;;;;;4812712;29;20050;-92
2022/01/25 07:17:28;;;;;;;81.93;37.58;;;3.40;99.90;;;;;;4828169;29;20062;-93
2022/01/25 07:23:21;;;;;;;82.18;36.72;;;3.40;99.90;;;;;;4813001;29;20126;-93
2022/01/25 07:25:47;;;;;;;81.75;36.58;;;3.20;99.90;;;;;;4813012;29;20390;-93
2022/01/25 07:28:55;;;;;;;81.32;38.47;;;3.50;99.90;;;;;;4813068;29;20527;-93
2022/01/25 07:31:21;;;;;;;78.13;36.10;;;3.40;99.90;;;;;;4797857;29;20062;-92
2022/01/25 07:33:47;;;;;;;76.72;37.75;;;3.40;99.90;;;;;;4812443;29;20064;-94
2022/01/25 07:36:46;;;;;;;78.57;37.08;;;3.40;99.90;;;;;;4814052;29;20058;-93
2022/01/25 07:39:15;;;;;;;80.20;37.67;;;3.50;99.90;;;;;;4797117;29;20058;-93
2022/01/25 07:41:40;;;;;;;80.47;37.35;;;3.40;99.90;;;;;;4812233;29;20066;-93
2022/01/25 07:49:17;;;;;;;78.05;36.78;;;3.40;99.90;;;;;;4844198;29;20401;-93
2022/01/25 07:51:43;;;;;;;81.47;37.08;;;3.80;99.90;;;;;;4795454;29;20054;-93
2022/01/25 07:54:08;;;;;;;81.88;38.13;;;3.40;99.90;;;;;;4797032;29;20512;-93
2022/01/25 08:04:11;;;;;;;79.72;36.78;;;3.50;99.90;;;;;;4827275;29;20042;-94
2022/01/25 08:06:38;;;;;;;85.22;38.65;;;3.50;99.90;;;;;;4797135;29;20516;-92
2022/01/25 08:09:32;;;;;;;82.88;38.17;;;3.50;99.90;;;;;;4811584;29;20066;-93
2022/01/25 08:11:58;;;;;;;80.65;37.72;;;3.50;99.90;;;;;;4790959;29;20082;-93
2022/01/25 08:14:24;;;;;;;85.05;39.35;;;3.40;99.90;;;;;;4812059;29;20095;-96
2022/01/25 08:17:11;;;;;;;81.90;37.45;;;3.60;99.90;;;;;;4811470;29;20062;-95
2022/01/25 08:19:37;;;;;;;83.63;38.35;;;3.50;99.90;;;;;;4811694;29;20509;-92
2022/01/25 08:22:03;;;;;;;82.38;37.15;;;3.50;99.90;;;;;;4797076;29;20062;-96
2022/01/25 10:05:55;;;;;;;75.40;35.42;;;4.00;99.90;;;;;;4825010;29;20139;-94
2022/01/25 10:08:34;;;;;;;81.22;37.08;;;3.90;99.90;;;;;;4828178;29;20046;-94
2022/01/25 10:11:05;;;;;;;80.13;36.85;;;4.00;99.90;;;;;;4812793;29;20489;-95
2022/01/25 10:13:36;;;;;;;82.25;36.05;;;4.00;99.90;;;;;;4812682;29;20144;-93
2022/01/25 10:16:13;;;;;;;81.10;36.17;;;4.00;99.90;;;;;;4827303;29;20049;-94
2022/01/25 10:18:46;;;;;;;80.55;37.65;;;4.00;99.90;;;;;;4812789;29;20061;-94
2022/01/25 10:21:24;;;;;;;83.60;37.42;;;4.00;99.90;;;;;;4826863;29;20058;-93
2022/01/25 10:24:18;;;;;;;84.78;38.20;;;4.00;99.90;;;;;;4827359;29;21263;-94
2022/01/25 10:26:55;;;;;;;85.13;36.67;;;4.00;99.90;;;;;;4822880;29;20515;-92
2022/01/25 10:29:26;;;;;;;78.07;35.97;;;4.00;99.90;;;;;;4811963;29;20416;-94
2022/01/25 10:31:57;;;;;;;87.68;37.85;;;4.00;99.90;;;;;;4812815;29;20058;-93
2022/01/25 10:34:30;;;;;;;85.32;37.72;;;4.10;99.90;;;;;;4827754;29;20195;-93
2022/01/25 10:36:57;;;;;;;81.38;37.88;;;4.30;99.90;;;;;;4812740;29;20529;-93
2022/01/25 10:39:28;;;;;;;82.82;36.88;;;4.00;99.90;;;;;;4812933;29;20058;-94
2022/01/25 10:42:08;;;;;;;78.97;37.53;;;4.20;99.90;;;;;;4828337;29;20057;-93
2022/01/25 10:52:05;;;;;;;79.45;35.78;;;4.10;99.90;;;;;;4829190;29;20054;-96
2022/01/25 11:05:19;;;;;;;81.20;34.90;;;4.10;99.90;;;;;;4844704;29;20057;-93
2022/01/25 11:07:46;;;;;;;79.40;36.97;;;3.90;99.90;;;;;;4812601;29;20058;-94
2022/01/25 11:10:20;;;;;;;77.28;36.50;;;4.20;99.90;;;;;;4812581;29;20050;-94
2022/01/25 11:13:01;;;;;;;79.45;36.30;;;4.10;99.90;;;;;;4812662;29;20062;-94
2022/01/25 11:15:45;;;;;;;86.95;38.25;;;4.40;99.90;;;;;;4843221;29;20629;-94
2022/01/25 11:18:11;;;;;;;84.25;37.78;;;4.20;99.90;;;;;;4812183;29;20065;-94
2022/01/25 11:20:37;;;;;;;86.35;37.97;;;4.40;99.90;;;;;;4812229;29;20057;-93
2022/01/25 11:23:05;;;;;;;77.53;37.17;;;4.10;99.90;;;;;;4828050;29;20093;-95
2022/01/25 11:25:31;;;;;;;78.82;36.83;;;4.80;99.90;;;;;;4812185;29;20054;-94
2022/01/25 11:27:58;;;;;;;83.35;36.40;;;4.20;99.90;;;;;;4827477;29;20539;-94
2022/01/25 11:34:26;;;;;;;75.53;35.38;;;4.20;99.90;;;;;;4844734;29;20041;-96
2022/01/25 11:37:02;;;;;;;78.85;36.15;;;4.30;99.90;;;;;;4815556;29;20058;-94
2022/01/25 11:39:30;;;;;;;77.43;34.80;;;4.20;99.90;;;;;;4808461;29;20058;-94
2022/01/25 11:42:25;;;;;;;83.78;36.47;;;4.40;99.90;;;;;;4815769;29;20058;-95
2022/01/25 11:44:57;;;;;;;79.30;35.13;;;4.20;99.90;;;;;;4774053;29;20521;-93
2022/01/25 11:47:33;;;;;;;75.93;35.15;;;4.50;99.90;;;;;;4778632;29;20127;-95
2022/01/25 11:50:09;;;;;;;81.70;36.92;;;4.20;99.90;;;;;;4778163;29;20055;-94
2022/01/25 11:52:35;;;;;;;76.30;34.63;;;4.20;99.90;;;;;;4777535;29;20536;-94
2022/01/25 11:55:19;;;;;;;83.65;37.78;;;4.20;99.90;;;;;;4772685;29;20059;-94
2022/01/25 11:57:48;;;;;;;85.63;36.42;;;4.30;99.90;;;;;;4769858;30;20051;-93
2022/01/25 12:00:15;;;;;;;78.28;36.65;;;4.50;99.90;;;;;;4760696;30;20071;-95
2022/01/25 12:02:46;;;;;;;78.10;35.20;;;4.30;99.90;;;;;;4767832;29;20146;-94
2022/01/25 12:05:16;;;;;;;82.72;37.58;;;4.30;99.90;;;;;;4778036;29;20417;-94
2022/01/25 12:08:11;;;;;;;73.80;32.95;;;4.30;99.90;;;;;;4789741;29;20054;-94
2022/01/25 12:10:45;;;;;;;79.80;34.45;;;4.30;99.90;;;;;;4795485;29;20142;-95
2022/01/25 12:13:30;;;;;;;80.45;35.72;;;4.30;99.90;;;;;;4794767;29;20058;-93
2022/01/25 12:16:43;;;;;;;81.45;34.75;;;4.50;99.90;;;;;;4796333;29;20070;-95
2022/01/25 12:19:12;;;;;;;77.28;34.65;;;4.40;99.90;;;;;;4829945;29;20101;-93
2022/01/25 12:21:47;;;;;;;79.40;35.80;;;4.30;99.90;;;;;;4824135;29;20561;-93
2022/01/25 12:24:18;;;;;;;80.70;35.33;;;4.50;99.90;;;;;;4831351;29;20060;-94
2022/01/25 12:27:19;;;;;;;79.80;34.63;;;4.40;99.90;;;;;;4847307;29;20104;-95
2022/01/25 12:30:11;;;;;;;75.45;33.55;;;4.30;99.90;;;;;;4814199;29;20050;-95
2022/01/25 12:32:47;;;;;;;77.15;34.15;;;4.40;99.90;;;;;;4798994;29;20066;-94
2022/01/25 12:35:18;;;;;;;80.60;34.42;;;4.30;99.90;;;;;;4842990;29;20061;-94
2022/01/25 12:37:53;;;;;;;73.10;31.85;;;4.40;99.90;;;;;;4828318;29;20065;-94
2022/01/25 12:40:25;;;;;;;81.78;35.58;;;4.50;99.90;;;;;;4841435;29;20640;-93
2022/01/25 12:42:55;;;;;;;74.53;35.08;;;4.50;99.90;;;;;;4828527;29;20058;-93
2022/01/25 12:45:22;;;;;;;78.30;35.13;;;4.50;99.90;;;;;;4826199;29;20141;-94
2022/01/25 12:47:52;;;;;;;78.50;35.45;;;4.50;99.90;;;;;;4800907;29;20054;-95
2022/01/25 12:50:18;;;;;;;81.95;36.33;;;4.50;99.90;;;;;;4806334;29;20070;-93
2022/01/25 12:52:48;;;;;;;76.65;33.00;;;4.50;99.90;;;;;;4815454;29;20097;-94
2022/01/25 12:55:15;;;;;;;79.35;35.25;;;4.50;99.90;;;;;;4806193;29;20061;-94
2022/01/25 12:57:48;;;;;;;75.55;33.42;;;4.50;99.90;;;;;;4825439;29;20062;-94
2022/01/25 13:00:15;;;;;;;77.55;34.65;;;4.50;99.90;;;;;;4808681;29;20417;-94
2022/01/25 13:02:41;;;;;;;90.28;37.65;;;4.40;99.90;;;;;;4806149;29;20050;-93
2022/01/25 13:05:16;;;;;;;82.35;35.55;;;4.40;99.90;;;;;;4802531;29;20589;-94
2022/01/25 13:07:43;;;;;;;81.28;35.13;;;4.40;99.90;;;;;;4855933;29;20050;-94
2022/01/25 13:10:12;;;;;;;83.03;36.38;;;4.50;99.90;;;;;;4813683;29;20054;-94
2022/01/25 13:12:55;;;;;;;83.32;37.00;;;4.40;99.90;;;;;;4813832;29;20062;-95
2022/01/25 13:19:03;;;;;;;76.93;33.33;;;4.40;99.90;;;;;;4844907;29;20178;-94
2022/01/25 13:21:36;;;;;;;74.75;33.38;;;4.70;99.90;;;;;;4814076;29;20061;-94
2022/01/25 13:24:08;;;;;;;76.55;33.25;;;4.50;99.90;;;;;;4844292;29;20511;-94
2022/01/25 13:27:02;;;;;;;74.35;32.53;;;4.40;99.90;;;;;;4813917;29;20112;-94
2022/01/25 13:32:39;;;;;;;84.47;33.35;;;4.30;99.90;;;;;;4830075;29;20118;-94
2022/01/25 13:35:18;;;;;;;79.18;34.10;;;4.40;99.90;;;;;;4813752;29;20061;-93
2022/01/25 13:37:47;;;;;;;81.30;33.47;;;4.50;99.90;;;;;;4813342;29;20054;-94
2022/01/25 13:40:14;;;;;;;79.40;35.58;;;4.40;99.90;;;;;;4814020;29;20407;-93
2022/01/25 13:42:55;;;;;;;75.28;33.80;;;4.50;99.90;;;;;;4829880;29;20054;-93
2022/01/25 13:48:13;;;;;;;79.88;33.92;;;4.50;99.90;;;;;;4828357;29;20104;-93
2022/01/25 13:50:39;;;;;;;77.68;33.00;;;4.70;99.90;;;;;;4813215;29;20412;-95
2022/01/25 13:53:07;;;;;;;76.97;34.15;;;4.70;99.90;;;;;;4813158;29;20457;-94
2022/01/25 13:55:34;;;;;;;82.93;35.03;;;4.30;99.90;;;;;;4813259;29;20069;-95
2022/01/25 13:58:17;;;;;;;77.70;33.80;;;4.30;99.90;;;;;;4814549;29;20061;-96
2022/01/25 14:04:28;;;;;;;71.03;32.53;;;4.30;99.90;;;;;;4844158;29;20069;-94
2022/01/25 14:07:00;;;;;;;78.72;33.00;;;4.20;99.90;;;;;;4814208;29;20057;-96
2022/01/25 14:09:34;;;;;;;75.63;32.25;;;4.30;99.90;;;;;;4812906;29;20057;-96
2022/01/25 14:25:48;;;;;;;77.07;32.85;;;4.30;99.90;;;;;;4858633;29;20070;-93
2022/01/25 14:28:24;;;;;;;75.80;32.03;;;4.30;99.90;;;;;;4813828;29;20062;-94
2022/01/25 14:30:52;;;;;;;76.38;31.83;;;4.10;99.90;;;;;;4812815;29;20053;-95
2022/01/25 14:33:22;;;;;;;75.70;32.58;;;4.30;99.90;;;;;;4812768;29;20144;-93
2022/01/25 14:35:51;;;;;;;76.53;32.50;;;4.20;99.90;;;;;;4812639;29;20101;-94
2022/01/25 14:38:21;;;;;;;75.88;33.47;;;4.20;99.90;;;;;;4812603;29;20065;-93
2022/01/25 14:41:07;;;;;;;75.93;33.85;;;4.30;99.90;;;;;;4842911;29;20477;-93
2022/01/25 14:50:42;;;;;;;72.55;30.55;;;4.20;99.90;;;;;;4843569;29;20477;-94
2022/01/25 14:53:12;;;;;;;79.45;34.40;;;4.10;99.90;;;;;;4813535;29;20073;-94
2022/01/25 14:55:40;;;;;;;83.53;33.72;;;4.10;99.90;;;;;;4812683;29;20097;-94
2022/01/25 15:04:17;;;;;;;75.10;32.47;;;4.00;99.90;;;;;;4841710;29;20122;-92
2022/01/25 15:06:43;;;;;;;78.00;33.97;;;4.10;99.90;;;;;;4844162;29;20062;-95
2022/01/25 15:09:20;;;;;;;79.20;31.50;;;4.10;99.90;;;;;;4846571;29;20054;-93
2022/01/25 15:11:50;;;;;;;78.15;33.40;;;4.10;99.90;;;;;;4815301;29;20057;-93
2022/01/25 15:17:57;;;;;;;79.25;31.38;;;4.00;99.90;;;;;;4841379;29;20143;-94
2022/01/25 15:20:25;;;;;;;77.13;32.40;;;4.00;99.90;;;;;;4797802;29;20158;-94
2022/01/25 15:22:50;;;;;;;77.15;32.65;;;4.00;99.90;;;;;;4797408;29;20062;-94
2022/01/25 15:25:24;;;;;;;78.57;33.38;;;4.00;99.90;;;;;;4815595;29;20144;-92
2022/01/25 15:27:52;;;;;;;78.38;32.95;;;4.00;99.90;;;;;;4802172;29;20164;-93
2022/01/25 15:33:45;;;;;;;72.22;31.77;;;4.00;99.90;;;;;;4838637;29;20072;-93
2022/01/25 15:36:16;;;;;;;82.32;32.80;;;4.00;99.90;;;;;;4797304;29;20094;-93
2022/01/25 15:38:53;;;;;;;71.65;31.58;;;4.00;99.90;;;;;;4797526;29;20058;-93
2022/01/25 15:41:23;;;;;;;73.88;32.25;;;4.30;99.90;;;;;;4797250;29;20062;-94
2022/01/25 15:43:56;;;;;;;74.90;31.73;;;3.90;99.90;;;;;;4827524;29;20076;-94
2022/01/25 15:46:31;;;;;;;81.20;31.85;;;3.90;99.90;;;;;;4797446;29;20416;-94
2022/01/25 15:49:29;;;;;;;78.03;34.15;;;3.90;99.90;;;;;;4800255;29;20097;-94
2022/01/25 15:51:56;;;;;;;76.63;32.05;;;3.90;99.90;;;;;;4815809;29;20058;-93
2022/01/25 15:54:23;;;;;;;77.57;32.15;;;4.20;99.90;;;;;;4815478;29;20069;-93
2022/01/25 15:56:57;;;;;;;85.20;33.58;;;4.00;99.90;;;;;;4815832;29;20077;-94
2022/01/25 16:03:09;;;;;;;85.97;32.60;;;3.80;99.90;;;;;;4846421;29;20049;-93
2022/01/25 16:05:35;;;;;;;80.18;32.65;;;3.90;99.90;;;;;;4814537;29;20800;-95
2022/01/25 16:08:01;;;;;;;76.45;33.38;;;3.70;99.90;;;;;;4830868;29;20148;-95
2022/01/25 16:15:13;;;;;;;81.80;33.33;;;3.70;99.90;;;;;;4846518;29;20041;-96
2022/01/25 16:17:40;;;;;;;78.03;33.53;;;3.70;99.90;;;;;;4814559;29;20065;-93
2022/01/25 16:20:15;;;;;;;82.75;34.45;;;4.00;99.90;;;;;;4814749;29;20064;-94
2022/01/25 16:22:41;;;;;;;92.47;34.35;;;3.70;99.90;;;;;;4815929;29;20066;-92
2022/01/25 16:25:07;;;;;;;92.75;38.83;;;4.10;99.90;;;;;;4817394;29;20572;-94
2022/01/25 16:31:43;;;;;;;89.03;35.60;;;3.70;99.90;;;;;;4847109;29;20497;-95
2022/01/25 16:34:12;;;;;;;78.95;32.05;;;3.70;99.90;;;;;;4831315;29;20413;-93
2022/01/25 16:36:39;;;;;;;85.43;34.90;;;3.70;99.90;;;;;;4817424;29;20099;-96
2022/01/25 16:39:21;;;;;;;77.90;34.28;;;3.70;99.90;;;;;;4816745;29;20179;-95
2022/01/25 16:41:48;;;;;;;82.82;34.17;;;3.70;99.90;;;;;;4816380;29;20066;-95
2022/01/25 16:44:15;;;;;;;87.35;35.63;;;3.70;99.90;;;;;;4816165;29;20104;-93
2022/01/25 16:50:27;;;;;;;84.45;33.72;;;3.60;99.90;;;;;;4846949;29;20057;-95
2022/01/25 16:52:54;;;;;;;88.85;37.45;;;3.70;99.90;;;;;;4798036;29;20046;-95
2022/01/25 16:55:20;;;;;;;86.95;36.03;;;3.70;99.90;;;;;;4799271;29;20394;-96
2022/01/25 16:58:35;;;;;;;90.85;33.88;;;3.80;99.90;;;;;;4813499;29;20070;-95
2022/01/25 17:07:11;;;;;;;81.65;31.92;;;3.60;99.90;;;;;;4831324;29;20530;-93
2022/01/25 17:09:38;;;;;;;76.82;31.90;;;3.70;99.90;;;;;;4797025;29;20058;-93
2022/01/25 17:12:07;;;;;;;80.22;34.22;;;3.80;99.90;;;;;;4814515;29;20046;-93
2022/01/25 17:18:15;;;;;;;71.97;30.88;;;3.60;99.90;;;;;;4828416;29;20453;-93
2022/01/25 17:20:43;;;;;;;72.25;31.40;;;3.60;99.90;;;;;;4797290;29;20066;-93
2022/01/25 17:23:10;;;;;;;79.53;32.35;;;3.60;99.90;;;;;;4796887;29;20054;-93
2022/01/25 17:25:39;;;;;;;88.15;34.67;;;3.70;99.90;;;;;;4797224;29;20051;-94
2022/01/25 17:28:05;;;;;;;78.20;32.88;;;3.60;99.90;;;;;;4797269;29;20065;-93
2022/01/25 17:30:31;;;;;;;78.47;32.08;;;3.60;99.90;;;;;;4812075;29;20489;-93
2022/01/25 17:32:57;;;;;;;81.00;32.80;;;3.60;99.90;;;;;;4796342;29;20054;-95
2022/01/25 17:35:26;;;;;;;78.70;31.80;;;3.50;99.90;;;;;;4798482;29;20085;-94
2022/01/25 17:46:30;;;;;;;84.80;32.45;;;3.60;99.90;;;;;;4828451;29;20064;-95
2022/01/25 17:48:59;;;;;;;71.47;31.70;;;3.50;99.90;;;;;;4796447;29;20066;-93
2022/01/25 17:51:25;;;;;;;80.35;34.00;;;3.50;99.90;;;;;;4796008;29;20054;-92
2022/01/25 17:54:05;;;;;;;87.45;36.20;;;3.50;99.90;;;;;;4792823;29;20093;-93
2022/01/25 17:56:33;;;;;;;82.07;31.75;;;3.90;99.90;;;;;;4778120;29;20058;-94
2022/01/25 17:59:07;;;;;;;76.18;32.03;;;3.70;99.90;;;;;;4778862;29;20055;-93
2022/01/25 18:01:39;;;;;;;80.10;31.90;;;3.50;99.90;;;;;;4794143;29;20489;-92
2022/01/25 18:04:07;;;;;;;;;;;3.50;99.90;;;;;;4779886;29;20597;-92
2022/01/25 18:06:36;;;;;;;88.82;34.42;;;3.50;99.90;;;;;;4793430;29;19957;-92
2022/01/25 18:22:06;;;;;;;77.57;30.40;;;3.50;99.90;;;;;;4855822;29;20793;-92
2022/01/25 18:24:46;;;;;;;82.10;32.05;;;3.50;99.90;;;;;;4807313;29;20093;-92
2022/01/25 18:58:25;;;;;;;81.70;32.42;;;3.40;99.90;;;;;;4824784;29;20041;-96
